sensor_id;sensor_type;location;lat;lon;timestamp;temperature;humidity
50460;DHT22;36385;51.644;7.098;2022-11-15T00:00:55;10.10;99.90
50460;DHT22;36385;51.644;7.098;2022-11-15T00:03:23;10.10;99.90
50460;DHT22;36385;51.644;7.098;2022-11-15T00:05:49;10.10;99.90
50460;DHT22;36385;51.644;7.098;2022-11-15T00:08:15;10.10;99.90
50460;DHT22;36385;51.644;7.098;2022-11-15T00:10:41;10.10;99.90
50460;DHT22;36385;51.644;7.098;2022-11-15T00:13:10;10.10;99.90
50460;DHT22;36385;51.644;7.098;2022-11-15T00:15:40;10.20;99.90
50460;DHT22;36385;51.644;7.098;2022-11-15T00:18:11;10.20;99.90
50460;DHT22;36385;51.644;7.098;2022-11-15T00:20:37;10.20;99.90
50460;DHT22;36385;51.644;7.098;2022-11-15T00:23:03;10.20;99.90
50460;DHT22;36385;51.644;7.098;2022-11-15T00:25:29;10.20;99.90
50460;DHT22;36385;51.644;7.098;2022-11-15T00:27:56;10.20;99.90
50460;DHT22;36385;51.644;7.098;2022-11-15T00:30:22;10.20;99.90
50460;DHT22;36385;51.644;7.098;2022-11-15T00:32:48;10.30;99.90
50460;DHT22;36385;51.644;7.098;2022-11-15T00:35:14;10.30;99.90
50460;DHT22;36385;51.644;7.098;2022-11-15T00:37:40;10.30;99.90
50460;DHT22;36385;51.644;7.098;2022-11-15T00:40:06;10.30;99.90
50460;DHT22;36385;51.644;7.098;2022-11-15T00:42:31;10.40;99.90
50460;DHT22;36385;51.644;7.098;2022-11-15T00:44:57;10.40;99.90
50460;DHT22;36385;51.644;7.098;2022-11-15T00:47:23;10.40;99.90
50460;DHT22;36385;51.644;7.098;2022-11-15T00:49:48;10.40;99.90
50460;DHT22;36385;51.644;7.098;2022-11-15T00:52:14;10.40;99.90
50460;DHT22;36385;51.644;7.098;2022-11-15T00:54:39;10.40;99.90
50460;DHT22;36385;51.644;7.098;2022-11-15T00:57:05;10.40;99.90
50460;DHT22;36385;51.644;7.098;2022-11-15T00:59:31;10.50;99.90
50460;DHT22;36385;51.644;7.098;2022-11-15T01:01:56;10.40;99.90
50460;DHT22;36385;51.644;7.098;2022-11-15T01:04:22;10.40;99.90
50460;DHT22;36385;51.644;7.098;2022-11-15T01:06:48;10.50;99.90
50460;DHT22;36385;51.644;7.098;2022-11-15T01:09:13;10.50;99.90
50460;DHT22;36385;51.644;7.098;2022-11-15T01:11:39;10.50;99.90
50460;DHT22;36385;51.644;7.098;2022-11-15T01:14:05;10.50;99.90
50460;DHT22;36385;51.644;7.098;2022-11-15T01:16:31;10.60;99.90
50460;DHT22;36385;51.644;7.098;2022-11-15T01:18:58;10.60;99.90
50460;DHT22;36385;51.644;7.098;2022-11-15T01:21:23;10.60;99.90
50460;DHT22;36385;51.644;7.098;2022-11-15T01:23:53;10.70;99.90
50460;DHT22;36385;51.644;7.098;2022-11-15T01:26:19;10.70;99.90
50460;DHT22;36385;51.644;7.098;2022-11-15T01:28:45;10.70;99.90
50460;DHT22;36385;51.644;7.098;2022-11-15T01:31:16;10.70;99.90
50460;DHT22;36385;51.644;7.098;2022-11-15T01:33:42;10.70;99.90
50460;DHT22;36385;51.644;7.098;2022-11-15T01:36:16;10.80;99.90
50460;DHT22;36385;51.644;7.098;2022-11-15T01:38:42;10.80;99.90
50460;DHT22;36385;51.644;7.098;2022-11-15T01:41:19;10.80;99.90
50460;DHT22;36385;51.644;7.098;2022-11-15T01:43:48;10.90;99.90
50460;DHT22;36385;51.644;7.098;2022-11-15T01:48:42;11.00;99.90
50460;DHT22;36385;51.644;7.098;2022-11-15T01:51:11;11.00;99.90
50460;DHT22;36385;51.644;7.098;2022-11-15T01:53:40;11.00;99.90
50460;DHT22;36385;51.644;7.098;2022-11-15T01:56:11;11.10;99.90
50460;DHT22;36385;51.644;7.098;2022-11-15T01:58:38;11.10;99.90
50460;DHT22;36385;51.644;7.098;2022-11-15T02:01:04;11.20;99.90
50460;DHT22;36385;51.644;7.098;2022-11-15T02:04:01;11.20;99.90
50460;DHT22;36385;51.644;7.098;2022-11-15T02:06:29;11.20;99.90
50460;DHT22;36385;51.644;7.098;2022-11-15T02:08:56;11.30;99.90
50460;DHT22;36385;51.644;7.098;2022-11-15T02:11:22;11.30;99.90
50460;DHT22;36385;51.644;7.098;2022-11-15T02:13:48;11.30;99.90
50460;DHT22;36385;51.644;7.098;2022-11-15T02:16:25;11.40;99.90
50460;DHT22;36385;51.644;7.098;2022-11-15T02:21:32;11.40;99.90
50460;DHT22;36385;51.644;7.098;2022-11-15T02:24:55;11.50;99.90
50460;DHT22;36385;51.644;7.098;2022-11-15T02:32:47;11.60;99.90
50460;DHT22;36385;51.644;7.098;2022-11-15T02:38:29;11.60;99.90
50460;DHT22;36385;51.644;7.098;2022-11-15T02:43:32;11.70;99.90
50460;DHT22;36385;51.644;7.098;2022-11-15T02:46:41;11.70;99.90
50460;DHT22;36385;51.644;7.098;2022-11-15T02:49:29;11.80;99.90
50460;DHT22;36385;51.644;7.098;2022-11-15T02:51:56;11.80;99.90
50460;DHT22;36385;51.644;7.098;2022-11-15T02:54:25;11.80;99.90
50460;DHT22;36385;51.644;7.098;2022-11-15T02:56:57;11.80;99.90
50460;DHT22;36385;51.644;7.098;2022-11-15T03:02:30;11.90;99.90
50460;DHT22;36385;51.644;7.098;2022-11-15T03:07:59;12.00;99.90
50460;DHT22;36385;51.644;7.098;2022-11-15T03:13:27;12.00;99.90
50460;DHT22;36385;51.644;7.098;2022-11-15T03:16:15;12.00;99.90
50460;DHT22;36385;51.644;7.098;2022-11-15T03:18:52;12.00;99.90
50460;DHT22;36385;51.644;7.098;2022-11-15T03:21:20;12.00;99.90
50460;DHT22;36385;51.644;7.098;2022-11-15T03:23:48;12.10;99.90
50460;DHT22;36385;51.644;7.098;2022-11-15T03:26:16;12.10;99.90
50460;DHT22;36385;51.644;7.098;2022-11-15T03:28:48;12.20;99.90
50460;DHT22;36385;51.644;7.098;2022-11-15T03:31:15;12.20;99.90
50460;DHT22;36385;51.644;7.098;2022-11-15T03:34:04;12.20;99.90
50460;DHT22;36385;51.644;7.098;2022-11-15T03:36:32;12.20;99.90
50460;DHT22;36385;51.644;7.098;2022-11-15T03:39:02;12.30;99.90
50460;DHT22;36385;51.644;7.098;2022-11-15T03:41:43;12.30;99.90
50460;DHT22;36385;51.644;7.098;2022-11-15T03:44:39;12.30;99.90
50460;DHT22;36385;51.644;7.098;2022-11-15T03:47:11;12.30;99.90
50460;DHT22;36385;51.644;7.098;2022-11-15T03:49:42;12.30;99.90
50460;DHT22;36385;51.644;7.098;2022-11-15T03:52:10;12.30;99.90
50460;DHT22;36385;51.644;7.098;2022-11-15T03:54:44;12.30;99.90
50460;DHT22;36385;51.644;7.098;2022-11-15T03:57:12;12.40;99.90
50460;DHT22;36385;51.644;7.098;2022-11-15T03:59:38;12.40;99.90
50460;DHT22;36385;51.644;7.098;2022-11-15T04:02:03;12.40;99.90
50460;DHT22;36385;51.644;7.098;2022-11-15T04:04:29;12.40;99.90
50460;DHT22;36385;51.644;7.098;2022-11-15T04:06:54;12.40;99.90
50460;DHT22;36385;51.644;7.098;2022-11-15T04:09:20;12.40;99.90
50460;DHT22;36385;51.644;7.098;2022-11-15T04:11:46;12.50;99.90
50460;DHT22;36385;51.644;7.098;2022-11-15T04:14:11;12.50;99.90
50460;DHT22;36385;51.644;7.098;2022-11-15T04:16:37;12.50;99.90
50460;DHT22;36385;51.644;7.098;2022-11-15T04:19:02;12.50;99.90
50460;DHT22;36385;51.644;7.098;2022-11-15T04:21:46;12.50;99.90
50460;DHT22;36385;51.644;7.098;2022-11-15T04:24:31;12.50;99.90
50460;DHT22;36385;51.644;7.098;2022-11-15T04:26:56;12.50;99.90
50460;DHT22;36385;51.644;7.098;2022-11-15T04:29:22;12.50;99.90
50460;DHT22;36385;51.644;7.098;2022-11-15T04:32:01;12.60;99.90
50460;DHT22;36385;51.644;7.098;2022-11-15T04:34:27;12.60;99.90
50460;DHT22;36385;51.644;7.098;2022-11-15T04:36:52;12.60;99.90
50460;DHT22;36385;51.644;7.098;2022-11-15T04:39:37;12.60;99.90
50460;DHT22;36385;51.644;7.098;2022-11-15T04:42:03;12.60;99.90
50460;DHT22;36385;51.644;7.098;2022-11-15T04:44:28;12.50;99.90
50460;DHT22;36385;51.644;7.098;2022-11-15T04:46:54;12.60;99.90
50460;DHT22;36385;51.644;7.098;2022-11-15T04:49:19;12.60;99.90
50460;DHT22;36385;51.644;7.098;2022-11-15T04:51:46;12.60;99.90
50460;DHT22;36385;51.644;7.098;2022-11-15T04:54:11;12.70;99.90
50460;DHT22;36385;51.644;7.098;2022-11-15T04:56:37;12.70;99.90
50460;DHT22;36385;51.644;7.098;2022-11-15T04:59:03;12.70;99.90
50460;DHT22;36385;51.644;7.098;2022-11-15T05:01:28;12.70;99.90
50460;DHT22;36385;51.644;7.098;2022-11-15T05:03:54;12.80;99.90
50460;DHT22;36385;51.644;7.098;2022-11-15T05:06:39;12.80;99.90
50460;DHT22;36385;51.644;7.098;2022-11-15T05:09:04;12.80;99.90
50460;DHT22;36385;51.644;7.098;2022-11-15T05:11:30;12.80;99.90
50460;DHT22;36385;51.644;7.098;2022-11-15T05:13:56;12.70;99.90
50460;DHT22;36385;51.644;7.098;2022-11-15T05:16:21;12.80;99.90
50460;DHT22;36385;51.644;7.098;2022-11-15T05:18:51;12.80;99.90
50460;DHT22;36385;51.644;7.098;2022-11-15T05:21:16;12.70;99.90
50460;DHT22;36385;51.644;7.098;2022-11-15T05:23:42;12.80;99.90
50460;DHT22;36385;51.644;7.098;2022-11-15T05:26:08;12.80;99.90
50460;DHT22;36385;51.644;7.098;2022-11-15T05:28:35;12.80;99.90
50460;DHT22;36385;51.644;7.098;2022-11-15T05:33:32;12.80;99.90
50460;DHT22;36385;51.644;7.098;2022-11-15T05:38:31;12.80;99.90
50460;DHT22;36385;51.644;7.098;2022-11-15T05:40:58;12.80;99.90
50460;DHT22;36385;51.644;7.098;2022-11-15T05:43:24;12.80;99.90
50460;DHT22;36385;51.644;7.098;2022-11-15T05:45:50;12.90;99.90
50460;DHT22;36385;51.644;7.098;2022-11-15T05:48:16;12.90;99.90
50460;DHT22;36385;51.644;7.098;2022-11-15T05:50:45;12.90;99.90
50460;DHT22;36385;51.644;7.098;2022-11-15T05:53:14;12.80;99.90
50460;DHT22;36385;51.644;7.098;2022-11-15T05:55:40;12.80;99.90
50460;DHT22;36385;51.644;7.098;2022-11-15T05:58:06;12.80;99.90
50460;DHT22;36385;51.644;7.098;2022-11-15T06:00:32;12.80;99.90
50460;DHT22;36385;51.644;7.098;2022-11-15T06:02:58;12.90;99.90
50460;DHT22;36385;51.644;7.098;2022-11-15T06:05:23;12.90;99.90
50460;DHT22;36385;51.644;7.098;2022-11-15T06:07:49;12.90;99.90
50460;DHT22;36385;51.644;7.098;2022-11-15T06:10:15;12.90;99.90
50460;DHT22;36385;51.644;7.098;2022-11-15T06:12:41;12.90;99.90
50460;DHT22;36385;51.644;7.098;2022-11-15T06:15:07;12.90;99.90
50460;DHT22;36385;51.644;7.098;2022-11-15T06:17:32;12.90;99.90
50460;DHT22;36385;51.644;7.098;2022-11-15T06:19:58;12.80;99.90
50460;DHT22;36385;51.644;7.098;2022-11-15T06:22:24;12.80;99.90
50460;DHT22;36385;51.644;7.098;2022-11-15T06:24:49;12.80;99.90
50460;DHT22;36385;51.644;7.098;2022-11-15T06:27:15;12.80;99.90
50460;DHT22;36385;51.644;7.098;2022-11-15T06:29:40;12.80;99.90
50460;DHT22;36385;51.644;7.098;2022-11-15T06:32:06;12.80;99.90
50460;DHT22;36385;51.644;7.098;2022-11-15T06:34:32;12.70;99.90
50460;DHT22;36385;51.644;7.098;2022-11-15T06:36:57;12.70;99.90
50460;DHT22;36385;51.644;7.098;2022-11-15T06:39:23;12.70;99.90
50460;DHT22;36385;51.644;7.098;2022-11-15T06:41:49;12.70;99.90
50460;DHT22;36385;51.644;7.098;2022-11-15T06:44:14;12.70;99.90
50460;DHT22;36385;51.644;7.098;2022-11-15T06:46:40;12.70;99.90
50460;DHT22;36385;51.644;7.098;2022-11-15T06:49:05;12.70;99.90
50460;DHT22;36385;51.644;7.098;2022-11-15T06:51:31;12.60;99.90
50460;DHT22;36385;51.644;7.098;2022-11-15T06:53:57;12.70;99.90
50460;DHT22;36385;51.644;7.098;2022-11-15T06:56:22;12.70;99.90
50460;DHT22;36385;51.644;7.098;2022-11-15T06:58:48;12.70;99.90
50460;DHT22;36385;51.644;7.098;2022-11-15T07:01:13;12.70;99.90
50460;DHT22;36385;51.644;7.098;2022-11-15T07:03:41;12.70;99.90
50460;DHT22;36385;51.644;7.098;2022-11-15T07:06:08;12.70;99.90
50460;DHT22;36385;51.644;7.098;2022-11-15T07:08:34;12.70;99.90
50460;DHT22;36385;51.644;7.098;2022-11-15T07:11:02;12.70;99.90
50460;DHT22;36385;51.644;7.098;2022-11-15T07:13:30;12.60;99.90
50460;DHT22;36385;51.644;7.098;2022-11-15T07:16:01;12.70;99.90
50460;DHT22;36385;51.644;7.098;2022-11-15T07:18:27;12.70;99.90
50460;DHT22;36385;51.644;7.098;2022-11-15T07:20:53;12.70;99.90
50460;DHT22;36385;51.644;7.098;2022-11-15T07:23:18;12.70;99.90
50460;DHT22;36385;51.644;7.098;2022-11-15T07:25:44;12.80;99.90
50460;DHT22;36385;51.644;7.098;2022-11-15T07:28:10;12.70;99.90
50460;DHT22;36385;51.644;7.098;2022-11-15T07:30:35;12.80;99.90
50460;DHT22;36385;51.644;7.098;2022-11-15T07:33:01;12.80;99.90
50460;DHT22;36385;51.644;7.098;2022-11-15T07:35:28;12.80;99.90
50460;DHT22;36385;51.644;7.098;2022-11-15T07:37:59;12.80;99.90
50460;DHT22;36385;51.644;7.098;2022-11-15T07:40:26;12.80;99.90
50460;DHT22;36385;51.644;7.098;2022-11-15T07:42:52;12.90;99.90
50460;DHT22;36385;51.644;7.098;2022-11-15T07:45:24;12.90;99.90
50460;DHT22;36385;51.644;7.098;2022-11-15T07:47:53;12.90;99.90
50460;DHT22;36385;51.644;7.098;2022-11-15T07:50:18;12.90;99.90
50460;DHT22;36385;51.644;7.098;2022-11-15T07:52:45;13.00;99.90
50460;DHT22;36385;51.644;7.098;2022-11-15T07:55:11;13.00;99.90
50460;DHT22;36385;51.644;7.098;2022-11-15T07:57:36;13.00;99.90
50460;DHT22;36385;51.644;7.098;2022-11-15T08:00:04;13.00;99.90
50460;DHT22;36385;51.644;7.098;2022-11-15T08:02:29;13.10;99.90
50460;DHT22;36385;51.644;7.098;2022-11-15T08:04:55;13.10;99.90
50460;DHT22;36385;51.644;7.098;2022-11-15T08:07:21;13.10;99.90
50460;DHT22;36385;51.644;7.098;2022-11-15T08:09:46;13.10;99.90
50460;DHT22;36385;51.644;7.098;2022-11-15T08:12:12;13.10;99.90
50460;DHT22;36385;51.644;7.098;2022-11-15T08:14:39;13.10;99.90
50460;DHT22;36385;51.644;7.098;2022-11-15T08:17:04;13.20;99.90
50460;DHT22;36385;51.644;7.098;2022-11-15T08:19:30;13.20;99.90
50460;DHT22;36385;51.644;7.098;2022-11-15T08:21:56;13.30;99.90
50460;DHT22;36385;51.644;7.098;2022-11-15T08:24:21;13.30;99.90
50460;DHT22;36385;51.644;7.098;2022-11-15T08:26:47;13.30;99.90
50460;DHT22;36385;51.644;7.098;2022-11-15T08:29:13;13.40;99.90
50460;DHT22;36385;51.644;7.098;2022-11-15T08:31:38;13.30;99.90
50460;DHT22;36385;51.644;7.098;2022-11-15T08:34:04;13.40;99.90
50460;DHT22;36385;51.644;7.098;2022-11-15T08:36:30;13.40;99.90
50460;DHT22;36385;51.644;7.098;2022-11-15T08:38:56;13.40;99.90
50460;DHT22;36385;51.644;7.098;2022-11-15T08:41:28;13.50;99.90
50460;DHT22;36385;51.644;7.098;2022-11-15T08:43:55;13.50;99.90
50460;DHT22;36385;51.644;7.098;2022-11-15T08:46:21;13.60;99.90
50460;DHT22;36385;51.644;7.098;2022-11-15T08:48:47;13.70;99.90
50460;DHT22;36385;51.644;7.098;2022-11-15T08:51:12;13.80;99.90
50460;DHT22;36385;51.644;7.098;2022-11-15T08:53:38;13.80;99.90
50460;DHT22;36385;51.644;7.098;2022-11-15T08:56:07;13.70;99.90
50460;DHT22;36385;51.644;7.098;2022-11-15T08:58:34;13.60;99.90
50460;DHT22;36385;51.644;7.098;2022-11-15T09:01:00;13.60;99.90
50460;DHT22;36385;51.644;7.098;2022-11-15T09:03:26;13.50;99.90
50460;DHT22;36385;51.644;7.098;2022-11-15T09:05:59;13.40;99.90
50460;DHT22;36385;51.644;7.098;2022-11-15T09:08:29;13.30;99.90
50460;DHT22;36385;51.644;7.098;2022-11-15T09:10:54;13.30;99.90
50460;DHT22;36385;51.644;7.098;2022-11-15T09:13:20;13.20;99.90
50460;DHT22;36385;51.644;7.098;2022-11-15T09:15:46;13.20;99.90
50460;DHT22;36385;51.644;7.098;2022-11-15T09:18:15;13.30;99.90
50460;DHT22;36385;51.644;7.098;2022-11-15T09:20:40;13.30;99.90
50460;DHT22;36385;51.644;7.098;2022-11-15T09:23:06;13.30;99.90
50460;DHT22;36385;51.644;7.098;2022-11-15T09:25:32;13.30;99.90
50460;DHT22;36385;51.644;7.098;2022-11-15T09:27:58;13.30;99.90
50460;DHT22;36385;51.644;7.098;2022-11-15T09:30:24;13.40;99.90
50460;DHT22;36385;51.644;7.098;2022-11-15T09:32:50;13.40;99.90
50460;DHT22;36385;51.644;7.098;2022-11-15T09:35:16;13.40;99.90
50460;DHT22;36385;51.644;7.098;2022-11-15T09:37:42;13.50;99.90
50460;DHT22;36385;51.644;7.098;2022-11-15T09:40:11;13.50;99.90
50460;DHT22;36385;51.644;7.098;2022-11-15T09:45:33;13.60;99.90
50460;DHT22;36385;51.644;7.098;2022-11-15T09:50:48;13.70;99.90
50460;DHT22;36385;51.644;7.098;2022-11-15T09:56:12;13.90;99.90
50460;DHT22;36385;51.644;7.098;2022-11-15T10:01:16;14.10;99.90
50460;DHT22;36385;51.644;7.098;2022-11-15T10:03:42;14.30;99.90
50460;DHT22;36385;51.644;7.098;2022-11-15T10:06:22;14.40;99.90
50460;DHT22;36385;51.644;7.098;2022-11-15T10:09:16;14.50;99.90
50460;DHT22;36385;51.644;7.098;2022-11-15T10:11:43;14.60;99.90
50460;DHT22;36385;51.644;7.098;2022-11-15T10:14:24;14.70;99.90
50460;DHT22;36385;51.644;7.098;2022-11-15T10:22:16;14.70;99.90
50460;DHT22;36385;51.644;7.098;2022-11-15T10:24:45;14.80;99.90
50460;DHT22;36385;51.644;7.098;2022-11-15T10:27:16;14.80;99.90
50460;DHT22;36385;51.644;7.098;2022-11-15T10:29:48;14.70;99.90
50460;DHT22;36385;51.644;7.098;2022-11-15T10:32:16;14.60;99.90
50460;DHT22;36385;51.644;7.098;2022-11-15T10:34:43;14.60;99.90
50460;DHT22;36385;51.644;7.098;2022-11-15T10:37:09;14.50;99.90
50460;DHT22;36385;51.644;7.098;2022-11-15T10:39:34;14.40;99.90
50460;DHT22;36385;51.644;7.098;2022-11-15T10:42:29;14.40;99.90
50460;DHT22;36385;51.644;7.098;2022-11-15T10:44:55;14.30;99.90
50460;DHT22;36385;51.644;7.098;2022-11-15T10:47:29;14.30;99.90
50460;DHT22;36385;51.644;7.098;2022-11-15T10:49:59;14.30;99.90
50460;DHT22;36385;51.644;7.098;2022-11-15T10:52:26;14.20;99.90
50460;DHT22;36385;51.644;7.098;2022-11-15T10:54:57;14.20;99.90
50460;DHT22;36385;51.644;7.098;2022-11-15T10:57:27;14.20;99.90
50460;DHT22;36385;51.644;7.098;2022-11-15T11:00:06;14.30;99.90
50460;DHT22;36385;51.644;7.098;2022-11-15T11:05:32;14.20;99.90
50460;DHT22;36385;51.644;7.098;2022-11-15T11:08:21;14.20;99.90
50460;DHT22;36385;51.644;7.098;2022-11-15T11:10:55;14.30;99.90
50460;DHT22;36385;51.644;7.098;2022-11-15T11:13:33;14.30;99.90
50460;DHT22;36385;51.644;7.098;2022-11-15T11:18:37;14.30;99.90
50460;DHT22;36385;51.644;7.098;2022-11-15T11:21:35;14.30;99.90
50460;DHT22;36385;51.644;7.098;2022-11-15T11:24:13;14.30;99.90
50460;DHT22;36385;51.644;7.098;2022-11-15T11:32:22;14.30;99.90
50460;DHT22;36385;51.644;7.098;2022-11-15T11:35:14;14.30;99.90
50460;DHT22;36385;51.644;7.098;2022-11-15T11:37:52;14.40;99.90
50460;DHT22;36385;51.644;7.098;2022-11-15T11:40:28;14.30;99.90
50460;DHT22;36385;51.644;7.098;2022-11-15T11:48:28;14.40;99.90
50460;DHT22;36385;51.644;7.098;2022-11-15T11:51:05;14.50;99.90
50460;DHT22;36385;51.644;7.098;2022-11-15T11:56:39;14.50;99.90
50460;DHT22;36385;51.644;7.098;2022-11-15T11:59:19;14.50;99.90
50460;DHT22;36385;51.644;7.098;2022-11-15T12:01:46;14.60;99.90
50460;DHT22;36385;51.644;7.098;2022-11-15T12:04:29;14.60;99.90
50460;DHT22;36385;51.644;7.098;2022-11-15T12:07:02;14.60;99.90
50460;DHT22;36385;51.644;7.098;2022-11-15T12:09:51;14.60;99.90
50460;DHT22;36385;51.644;7.098;2022-11-15T12:15:16;14.60;99.90
50460;DHT22;36385;51.644;7.098;2022-11-15T12:17:44;14.60;99.50
50460;DHT22;36385;51.644;7.098;2022-11-15T12:20:21;14.60;99.10
50460;DHT22;36385;51.644;7.098;2022-11-15T12:41:20;14.80;96.80
50460;DHT22;36385;51.644;7.098;2022-11-15T12:43:47;14.80;97.40
50460;DHT22;36385;51.644;7.098;2022-11-15T12:48:54;14.90;96.50
50460;DHT22;36385;51.644;7.098;2022-11-15T12:59:52;14.70;96.60
50460;DHT22;36385;51.644;7.098;2022-11-15T13:02:40;14.80;96.40
50460;DHT22;36385;51.644;7.098;2022-11-15T13:22:44;14.80;95.00
50460;DHT22;36385;51.644;7.098;2022-11-15T13:28:00;14.80;95.20
50460;DHT22;36385;51.644;7.098;2022-11-15T13:30:29;14.80;95.30
50460;DHT22;36385;51.644;7.098;2022-11-15T13:32:56;14.80;95.60
50460;DHT22;36385;51.644;7.098;2022-11-15T13:35:27;14.90;95.90
50460;DHT22;36385;51.644;7.098;2022-11-15T13:37:54;14.90;96.10
50460;DHT22;36385;51.644;7.098;2022-11-15T13:40:26;14.90;96.20
50460;DHT22;36385;51.644;7.098;2022-11-15T13:42:58;14.90;95.90
50460;DHT22;36385;51.644;7.098;2022-11-15T13:45:24;14.90;96.30
50460;DHT22;36385;51.644;7.098;2022-11-15T13:47:55;14.90;96.40
50460;DHT22;36385;51.644;7.098;2022-11-15T13:50:26;14.90;96.50
50460;DHT22;36385;51.644;7.098;2022-11-15T13:52:55;14.80;96.90
50460;DHT22;36385;51.644;7.098;2022-11-15T13:55:23;14.90;96.60
50460;DHT22;36385;51.644;7.098;2022-11-15T13:58:09;14.90;96.50
50460;DHT22;36385;51.644;7.098;2022-11-15T14:03:32;14.90;96.70
50460;DHT22;36385;51.644;7.098;2022-11-15T14:08:27;14.90;96.80
50460;DHT22;36385;51.644;7.098;2022-11-15T14:13:39;14.80;96.50
50460;DHT22;36385;51.644;7.098;2022-11-15T14:16:16;14.80;96.50
50460;DHT22;36385;51.644;7.098;2022-11-15T14:21:10;14.80;96.80
50460;DHT22;36385;51.644;7.098;2022-11-15T14:23:36;14.80;97.30
50460;DHT22;36385;51.644;7.098;2022-11-15T14:26:02;14.80;97.10
50460;DHT22;36385;51.644;7.098;2022-11-15T14:28:32;14.80;97.10
50460;DHT22;36385;51.644;7.098;2022-11-15T14:31:01;14.70;96.80
50460;DHT22;36385;51.644;7.098;2022-11-15T14:33:36;14.80;97.20
50460;DHT22;36385;51.644;7.098;2022-11-15T14:38:39;14.80;97.50
50460;DHT22;36385;51.644;7.098;2022-11-15T14:41:05;14.70;97.50
50460;DHT22;36385;51.644;7.098;2022-11-15T14:43:31;14.70;97.60
50460;DHT22;36385;51.644;7.098;2022-11-15T14:45:57;14.70;97.50
50460;DHT22;36385;51.644;7.098;2022-11-15T14:48:23;14.70;97.50
50460;DHT22;36385;51.644;7.098;2022-11-15T14:50:49;14.70;98.00
50460;DHT22;36385;51.644;7.098;2022-11-15T14:53:16;14.70;98.00
50460;DHT22;36385;51.644;7.098;2022-11-15T14:55:42;14.70;98.40
50460;DHT22;36385;51.644;7.098;2022-11-15T14:58:08;14.70;98.50
50460;DHT22;36385;51.644;7.098;2022-11-15T15:00:38;14.70;98.60
50460;DHT22;36385;51.644;7.098;2022-11-15T15:03:05;14.60;98.80
50460;DHT22;36385;51.644;7.098;2022-11-15T15:05:40;14.60;99.00
50460;DHT22;36385;51.644;7.098;2022-11-15T15:08:07;14.60;99.30
50460;DHT22;36385;51.644;7.098;2022-11-15T15:10:43;14.50;99.20
50460;DHT22;36385;51.644;7.098;2022-11-15T15:15:43;14.40;99.80
50460;DHT22;36385;51.644;7.098;2022-11-15T15:18:09;14.40;99.90
50460;DHT22;36385;51.644;7.098;2022-11-15T15:20:38;14.40;99.90
50460;DHT22;36385;51.644;7.098;2022-11-15T15:23:05;14.40;99.90
50460;DHT22;36385;51.644;7.098;2022-11-15T15:25:33;14.40;99.90
50460;DHT22;36385;51.644;7.098;2022-11-15T15:28:00;14.30;99.90
50460;DHT22;36385;51.644;7.098;2022-11-15T15:30:28;14.30;99.90
50460;DHT22;36385;51.644;7.098;2022-11-15T15:32:54;14.20;99.90
50460;DHT22;36385;51.644;7.098;2022-11-15T15:35:20;14.20;99.90
50460;DHT22;36385;51.644;7.098;2022-11-15T15:37:48;14.20;99.90
50460;DHT22;36385;51.644;7.098;2022-11-15T15:40:19;14.20;99.90
50460;DHT22;36385;51.644;7.098;2022-11-15T15:42:46;14.10;99.90
50460;DHT22;36385;51.644;7.098;2022-11-15T15:45:13;14.10;99.90
50460;DHT22;36385;51.644;7.098;2022-11-15T15:47:39;14.00;99.90
50460;DHT22;36385;51.644;7.098;2022-11-15T15:52:40;13.90;99.90
50460;DHT22;36385;51.644;7.098;2022-11-15T15:55:05;13.90;99.90
50460;DHT22;36385;51.644;7.098;2022-11-15T15:57:31;13.90;99.90
50460;DHT22;36385;51.644;7.098;2022-11-15T15:59:57;13.90;99.90
50460;DHT22;36385;51.644;7.098;2022-11-15T16:02:22;13.90;99.90
50460;DHT22;36385;51.644;7.098;2022-11-15T16:04:48;13.90;99.90
50460;DHT22;36385;51.644;7.098;2022-11-15T16:07:21;13.90;99.90
50460;DHT22;36385;51.644;7.098;2022-11-15T16:09:49;13.90;99.90
50460;DHT22;36385;51.644;7.098;2022-11-15T16:12:34;13.90;99.90
50460;DHT22;36385;51.644;7.098;2022-11-15T16:15:00;13.80;99.90
50460;DHT22;36385;51.644;7.098;2022-11-15T16:17:32;13.80;99.90
50460;DHT22;36385;51.644;7.098;2022-11-15T16:19:59;13.80;99.90
50460;DHT22;36385;51.644;7.098;2022-11-15T16:22:24;13.80;99.90
50460;DHT22;36385;51.644;7.098;2022-11-15T16:24:50;13.80;99.90
50460;DHT22;36385;51.644;7.098;2022-11-15T16:27:18;13.80;99.90
50460;DHT22;36385;51.644;7.098;2022-11-15T16:29:45;13.80;99.90
50460;DHT22;36385;51.644;7.098;2022-11-15T16:32:11;13.80;99.90
50460;DHT22;36385;51.644;7.098;2022-11-15T16:34:37;13.80;99.90
50460;DHT22;36385;51.644;7.098;2022-11-15T16:37:04;13.70;99.90
50460;DHT22;36385;51.644;7.098;2022-11-15T16:39:30;13.70;99.90
50460;DHT22;36385;51.644;7.098;2022-11-15T16:41:57;13.80;99.90
50460;DHT22;36385;51.644;7.098;2022-11-15T16:44:23;13.80;99.90
50460;DHT22;36385;51.644;7.098;2022-11-15T16:46:49;13.70;99.90
50460;DHT22;36385;51.644;7.098;2022-11-15T16:49:20;13.70;99.90
50460;DHT22;36385;51.644;7.098;2022-11-15T16:51:47;13.70;99.90
50460;DHT22;36385;51.644;7.098;2022-11-15T16:54:14;13.70;99.90
50460;DHT22;36385;51.644;7.098;2022-11-15T16:56:40;13.70;99.90
50460;DHT22;36385;51.644;7.098;2022-11-15T16:59:06;13.80;99.90
50460;DHT22;36385;51.644;7.098;2022-11-15T17:01:36;13.70;99.90
50460;DHT22;36385;51.644;7.098;2022-11-15T17:04:11;13.70;99.90
50460;DHT22;36385;51.644;7.098;2022-11-15T17:06:41;13.70;99.90
50460;DHT22;36385;51.644;7.098;2022-11-15T17:09:12;13.70;99.90
50460;DHT22;36385;51.644;7.098;2022-11-15T17:11:40;13.70;99.90
50460;DHT22;36385;51.644;7.098;2022-11-15T17:14:05;13.70;99.90
50460;DHT22;36385;51.644;7.098;2022-11-15T17:16:31;13.60;99.90
50460;DHT22;36385;51.644;7.098;2022-11-15T17:18:58;13.60;99.90
50460;DHT22;36385;51.644;7.098;2022-11-15T17:21:24;13.60;99.90
50460;DHT22;36385;51.644;7.098;2022-11-15T17:23:52;13.60;99.90
50460;DHT22;36385;51.644;7.098;2022-11-15T17:26:19;13.60;99.90
50460;DHT22;36385;51.644;7.098;2022-11-15T17:28:45;13.70;99.90
50460;DHT22;36385;51.644;7.098;2022-11-15T17:31:11;13.70;99.90
50460;DHT22;36385;51.644;7.098;2022-11-15T17:33:38;13.70;99.90
50460;DHT22;36385;51.644;7.098;2022-11-15T17:36:09;13.70;99.90
50460;DHT22;36385;51.644;7.098;2022-11-15T17:38:35;13.70;99.90
50460;DHT22;36385;51.644;7.098;2022-11-15T17:41:02;13.80;99.90
50460;DHT22;36385;51.644;7.098;2022-11-15T17:43:30;13.80;99.90
50460;DHT22;36385;51.644;7.098;2022-11-15T17:45:56;13.80;99.90
50460;DHT22;36385;51.644;7.098;2022-11-15T17:48:22;13.80;99.90
50460;DHT22;36385;51.644;7.098;2022-11-15T17:50:56;13.80;99.90
50460;DHT22;36385;51.644;7.098;2022-11-15T17:53:22;13.80;99.90
50460;DHT22;36385;51.644;7.098;2022-11-15T17:55:48;13.80;99.90
50460;DHT22;36385;51.644;7.098;2022-11-15T17:58:13;13.80;99.90